sensor_id;sensor_type;location;lat;lon;timestamp;pressure;altitude;pressure_sealevel;temperature;humidity
6395;BME280;3230;42.588;23.358;2022-08-11T00:00:11;91276.69;;;18.11;98.90
6395;BME280;3230;42.588;23.358;2022-08-11T00:02:39;91279.78;;;18.13;99.05
6395;BME280;3230;42.588;23.358;2022-08-11T00:05:14;91278.53;;;18.11;98.94
6395;BME280;3230;42.588;23.358;2022-08-11T00:07:51;91281.03;;;17.98;99.33
6395;BME280;3230;42.588;23.358;2022-08-11T00:10:19;91275.06;;;17.93;100.00
6395;BME280;3230;42.588;23.358;2022-08-11T00:15:16;91273.09;;;17.98;99.88
6395;BME280;3230;42.588;23.358;2022-08-11T00:17:42;91272.44;;;17.93;100.00
6395;BME280;3230;42.588;23.358;2022-08-11T00:20:11;91271.34;;;17.85;100.00
6395;BME280;3230;42.588;23.358;2022-08-11T00:22:40;91266.53;;;17.78;100.00
6395;BME280;3230;42.588;23.358;2022-08-11T00:25:10;91265.72;;;17.78;100.00
6395;BME280;3230;42.588;23.358;2022-08-11T00:27:38;91264.66;;;17.70;100.00
6395;BME280;3230;42.588;23.358;2022-08-11T00:30:06;91266.03;;;17.67;100.00
6395;BME280;3230;42.588;23.358;2022-08-11T00:32:32;91268.38;;;17.69;100.00
6395;BME280;3230;42.588;23.358;2022-08-11T00:34:59;91262.00;;;17.61;100.00
6395;BME280;3230;42.588;23.358;2022-08-11T00:37:26;91267.13;;;17.57;100.00
6395;BME280;3230;42.588;23.358;2022-08-11T00:39:54;91263.69;;;17.48;100.00
6395;BME280;3230;42.588;23.358;2022-08-11T00:48:01;91263.66;;;17.31;100.00
6395;BME280;3230;42.588;23.358;2022-08-11T00:53:25;91259.91;;;17.32;100.00
6395;BME280;3230;42.588;23.358;2022-08-11T01:01:58;91252.25;;;17.13;100.00
6395;BME280;3230;42.588;23.358;2022-08-11T01:07:10;91260.28;;;16.99;100.00
6395;BME280;3230;42.588;23.358;2022-08-11T01:12:20;91264.66;;;16.94;100.00
6395;BME280;3230;42.588;23.358;2022-08-11T01:15:00;91253.16;;;16.99;100.00
6395;BME280;3230;42.588;23.358;2022-08-11T01:30:06;91246.47;;;16.70;100.00
6395;BME280;3230;42.588;23.358;2022-08-11T01:33:02;91247.25;;;16.71;100.00
6395;BME280;3230;42.588;23.358;2022-08-11T01:42:12;91243.16;;;16.65;100.00
6395;BME280;3230;42.588;23.358;2022-08-11T01:47:58;91246.41;;;16.53;100.00
6395;BME280;3230;42.588;23.358;2022-08-11T02:05:27;91233.59;;;16.86;100.00
6395;BME280;3230;42.588;23.358;2022-08-11T02:11:23;91223.97;;;16.90;100.00
6395;BME280;3230;42.588;23.358;2022-08-11T02:16:58;91233.75;;;16.81;100.00
6395;BME280;3230;42.588;23.358;2022-08-11T02:31:07;91231.19;;;16.67;100.00
6395;BME280;3230;42.588;23.358;2022-08-11T02:34:02;91234.00;;;16.71;100.00
6395;BME280;3230;42.588;23.358;2022-08-11T02:37:11;91242.09;;;16.66;100.00
6395;BME280;3230;42.588;23.358;2022-08-11T02:48:26;91231.88;;;16.41;100.00
6395;BME280;3230;42.588;23.358;2022-08-11T02:51:39;91233.13;;;16.44;100.00
6395;BME280;3230;42.588;23.358;2022-08-11T02:54:12;91239.97;;;16.45;100.00
6395;BME280;3230;42.588;23.358;2022-08-11T02:57:03;91245.22;;;16.36;100.00
6395;BME280;3230;42.588;23.358;2022-08-11T03:02:32;91233.97;;;16.30;100.00
6395;BME280;3230;42.588;23.358;2022-08-11T03:10:21;91238.38;;;16.35;100.00
6395;BME280;3230;42.588;23.358;2022-08-11T03:13:13;91243.97;;;16.34;100.00
6395;BME280;3230;42.588;23.358;2022-08-11T03:16:23;91245.19;;;16.27;100.00
6395;BME280;3230;42.588;23.358;2022-08-11T03:24:17;91246.38;;;16.21;100.00
6395;BME280;3230;42.588;23.358;2022-08-11T03:29:41;91241.78;;;16.04;100.00
6395;BME280;3230;42.588;23.358;2022-08-11T03:32:33;91247.84;;;16.05;100.00
6395;BME280;3230;42.588;23.358;2022-08-11T03:35:03;91247.84;;;16.05;100.00
6395;BME280;3230;42.588;23.358;2022-08-11T03:37:47;91250.97;;;16.07;100.00
6395;BME280;3230;42.588;23.358;2022-08-11T03:40:32;91245.81;;;16.02;100.00
6395;BME280;3230;42.588;23.358;2022-08-11T03:51:24;91249.75;;;16.13;100.00
6395;BME280;3230;42.588;23.358;2022-08-11T03:54:09;91251.53;;;16.26;100.00
6395;BME280;3230;42.588;23.358;2022-08-11T03:57:20;91250.03;;;16.34;100.00
6395;BME280;3230;42.588;23.358;2022-08-11T04:10:52;91256.72;;;16.94;100.00
6395;BME280;3230;42.588;23.358;2022-08-11T04:45:08;91270.19;;;20.15;92.39
6395;BME280;3230;42.588;23.358;2022-08-11T04:50:28;91286.25;;;24.30;74.04
6395;BME280;3230;42.588;23.358;2022-08-11T04:56:28;91283.56;;;28.88;56.36
6395;BME280;3230;42.588;23.358;2022-08-11T05:05:18;91278.44;;;30.75;51.41
6395;BME280;3230;42.588;23.358;2022-08-11T05:11:10;91282.63;;;32.48;nan
6395;BME280;3230;42.588;23.358;2022-08-11T05:13:47;91281.19;;;32.71;nan
6395;BME280;3230;42.588;23.358;2022-08-11T05:16:49;91281.78;;;33.17;nan
6395;BME280;3230;42.588;23.358;2022-08-11T05:19:33;91287.91;;;33.52;nan
6395;BME280;3230;42.588;23.358;2022-08-11T05:22:21;91282.03;;;33.85;nan
6395;BME280;3230;42.588;23.358;2022-08-11T05:25:11;91284.22;;;33.66;nan
6395;BME280;3230;42.588;23.358;2022-08-11T05:30:47;91275.81;;;33.29;nan
6395;BME280;3230;42.588;23.358;2022-08-11T05:33:36;91285.91;;;33.84;nan
6395;BME280;3230;42.588;23.358;2022-08-11T05:36:46;91287.59;;;34.45;nan
6395;BME280;3230;42.588;23.358;2022-08-11T05:39:15;91281.50;;;34.14;nan
6395;BME280;3230;42.588;23.358;2022-08-11T05:42:01;91284.56;;;33.68;nan
6395;BME280;3230;42.588;23.358;2022-08-11T05:44:49;91278.00;;;35.17;nan
6395;BME280;3230;42.588;23.358;2022-08-11T05:47:35;91286.56;;;34.59;nan
6395;BME280;3230;42.588;23.358;2022-08-11T05:50:21;91282.94;;;34.46;nan
6395;BME280;3230;42.588;23.358;2022-08-11T05:53:09;91280.13;;;32.27;nan
6395;BME280;3230;42.588;23.358;2022-08-11T05:55:55;91274.81;;;29.96;nan
6395;BME280;3230;42.588;23.358;2022-08-11T05:58:42;91274.81;;;29.49;nan
6395;BME280;3230;42.588;23.358;2022-08-11T06:01:13;91281.69;;;29.29;nan
6395;BME280;3230;42.588;23.358;2022-08-11T06:03:49;91276.72;;;29.96;nan
6395;BME280;3230;42.588;23.358;2022-08-11T06:06:36;91273.47;;;31.40;nan
6395;BME280;3230;42.588;23.358;2022-08-11T06:09:05;91278.53;;;31.35;nan
6395;BME280;3230;42.588;23.358;2022-08-11T06:11:37;91279.94;;;32.03;nan
6395;BME280;3230;42.588;23.358;2022-08-11T06:14:05;91280.31;;;32.05;nan
6395;BME280;3230;42.588;23.358;2022-08-11T06:16:31;91272.09;;;31.74;nan
6395;BME280;3230;42.588;23.358;2022-08-11T06:18:57;91278.84;;;33.04;nan
6395;BME280;3230;42.588;23.358;2022-08-11T06:21:24;91279.84;;;34.20;nan
6395;BME280;3230;42.588;23.358;2022-08-11T06:23:51;91272.59;;;34.97;nan
6395;BME280;3230;42.588;23.358;2022-08-11T06:26:17;91273.78;;;34.56;nan
6395;BME280;3230;42.588;23.358;2022-08-11T06:28:46;91276.75;;;35.22;nan
6395;BME280;3230;42.588;23.358;2022-08-11T06:31:15;91279.16;;;35.36;nan
6395;BME280;3230;42.588;23.358;2022-08-11T06:34:22;91275.47;;;34.90;nan
6395;BME280;3230;42.588;23.358;2022-08-11T06:37:23;91278.72;;;36.83;nan
6395;BME280;3230;42.588;23.358;2022-08-11T06:48:15;91271.84;;;36.32;nan
6395;BME280;3230;42.588;23.358;2022-08-11T06:50:48;91276.16;;;37.18;nan
6395;BME280;3230;42.588;23.358;2022-08-11T06:53:32;91280.56;;;36.86;nan
6395;BME280;3230;42.588;23.358;2022-08-11T06:55:59;91288.03;;;37.54;nan
6395;BME280;3230;42.588;23.358;2022-08-11T06:58:46;91276.53;;;37.46;nan
6395;BME280;3230;42.588;23.358;2022-08-11T07:01:40;91277.66;;;38.22;nan
6395;BME280;3230;42.588;23.358;2022-08-11T07:04:12;91279.38;;;37.68;nan
6395;BME280;3230;42.588;23.358;2022-08-11T07:06:47;91268.06;;;37.02;nan
6395;BME280;3230;42.588;23.358;2022-08-11T07:12:57;91290.06;;;37.24;nan
6395;BME280;3230;42.588;23.358;2022-08-11T07:15:44;91296.88;;;37.97;nan
6395;BME280;3230;42.588;23.358;2022-08-11T07:18:19;91301.38;;;38.51;nan
6395;BME280;3230;42.588;23.358;2022-08-11T07:21:27;91298.41;;;39.57;nan
6395;BME280;3230;42.588;23.358;2022-08-11T07:24:23;91302.72;;;38.69;nan
6395;BME280;3230;42.588;23.358;2022-08-11T07:27:11;91294.28;;;38.41;nan
6395;BME280;3230;42.588;23.358;2022-08-11T07:30:00;91290.88;;;39.16;nan
6395;BME280;3230;42.588;23.358;2022-08-11T07:32:34;91289.56;;;38.99;nan
6395;BME280;3230;42.588;23.358;2022-08-11T07:35:08;91292.53;;;39.14;nan
6395;BME280;3230;42.588;23.358;2022-08-11T07:37:40;91291.78;;;39.45;nan
6395;BME280;3230;42.588;23.358;2022-08-11T07:40:08;91290.25;;;40.16;nan
6395;BME280;3230;42.588;23.358;2022-08-11T07:42:34;91291.06;;;40.91;nan
6395;BME280;3230;42.588;23.358;2022-08-11T07:45:04;91291.25;;;39.28;nan
6395;BME280;3230;42.588;23.358;2022-08-11T07:47:51;91289.25;;;40.60;nan
6395;BME280;3230;42.588;23.358;2022-08-11T07:50:41;91283.44;;;39.80;nan
6395;BME280;3230;42.588;23.358;2022-08-11T07:53:28;91279.94;;;36.53;nan
6395;BME280;3230;42.588;23.358;2022-08-11T07:55:55;91282.47;;;35.81;nan
6395;BME280;3230;42.588;23.358;2022-08-11T07:58:23;91280.94;;;35.96;nan
6395;BME280;3230;42.588;23.358;2022-08-11T08:01:10;91275.56;;;36.09;nan
6395;BME280;3230;42.588;23.358;2022-08-11T08:03:55;91272.75;;;35.96;nan
6395;BME280;3230;42.588;23.358;2022-08-11T08:06:43;91281.84;;;36.23;nan
6395;BME280;3230;42.588;23.358;2022-08-11T08:09:28;91282.84;;;36.45;nan
6395;BME280;3230;42.588;23.358;2022-08-11T08:12:19;91281.94;;;36.19;nan
6395;BME280;3230;42.588;23.358;2022-08-11T08:15:06;91276.66;;;34.25;nan
6395;BME280;3230;42.588;23.358;2022-08-11T08:17:51;91275.31;;;34.13;nan
6395;BME280;3230;42.588;23.358;2022-08-11T08:20:19;91274.66;;;33.58;nan
6395;BME280;3230;42.588;23.358;2022-08-11T08:22:57;91268.97;;;33.72;nan
6395;BME280;3230;42.588;23.358;2022-08-11T08:25:24;91274.34;;;34.47;nan
6395;BME280;3230;42.588;23.358;2022-08-11T08:27:51;91270.19;;;35.19;nan
6395;BME280;3230;42.588;23.358;2022-08-11T08:30:17;91267.78;;;36.41;nan
6395;BME280;3230;42.588;23.358;2022-08-11T08:33:02;91266.63;;;35.92;nan
6395;BME280;3230;42.588;23.358;2022-08-11T08:35:29;91268.03;;;36.30;nan
6395;BME280;3230;42.588;23.358;2022-08-11T08:37:58;91267.31;;;36.42;nan
6395;BME280;3230;42.588;23.358;2022-08-11T08:40:25;91259.56;;;37.25;nan
6395;BME280;3230;42.588;23.358;2022-08-11T08:42:52;91270.19;;;37.36;nan
6395;BME280;3230;42.588;23.358;2022-08-11T08:45:19;91273.34;;;38.47;nan
6395;BME280;3230;42.588;23.358;2022-08-11T08:47:51;91260.03;;;37.88;nan
6395;BME280;3230;42.588;23.358;2022-08-11T08:50:21;91269.47;;;38.22;nan
6395;BME280;3230;42.588;23.358;2022-08-11T08:52:54;91270.38;;;36.74;nan
6395;BME280;3230;42.588;23.358;2022-08-11T08:55:21;91264.59;;;36.26;nan
6395;BME280;3230;42.588;23.358;2022-08-11T08:57:49;91270.94;;;36.06;nan
6395;BME280;3230;42.588;23.358;2022-08-11T09:00:17;91257.31;;;35.73;nan
6395;BME280;3230;42.588;23.358;2022-08-11T09:02:43;91256.38;;;35.80;nan
6395;BME280;3230;42.588;23.358;2022-08-11T09:05:10;91262.13;;;36.31;nan
6395;BME280;3230;42.588;23.358;2022-08-11T09:07:37;91249.31;;;35.99;nan
6395;BME280;3230;42.588;23.358;2022-08-11T09:10:04;91246.63;;;35.29;nan
6395;BME280;3230;42.588;23.358;2022-08-11T09:12:32;91244.25;;;34.34;nan
6395;BME280;3230;42.588;23.358;2022-08-11T09:14:59;91238.78;;;31.73;nan
6395;BME280;3230;42.588;23.358;2022-08-11T09:17:38;91240.94;;;31.93;nan
6395;BME280;3230;42.588;23.358;2022-08-11T09:22:34;91239.69;;;29.71;nan
6395;BME280;3230;42.588;23.358;2022-08-11T09:25:20;91231.22;;;29.55;nan
6395;BME280;3230;42.588;23.358;2022-08-11T09:28:12;91233.50;;;29.13;nan
6395;BME280;3230;42.588;23.358;2022-08-11T09:30:42;91232.75;;;29.23;nan
6395;BME280;3230;42.588;23.358;2022-08-11T09:33:09;91228.81;;;28.74;nan
6395;BME280;3230;42.588;23.358;2022-08-11T09:35:37;91227.28;;;28.72;nan
6395;BME280;3230;42.588;23.358;2022-08-11T09:38:05;91224.84;;;28.38;nan
6395;BME280;3230;42.588;23.358;2022-08-11T09:40:50;91224.41;;;27.59;nan
6395;BME280;3230;42.588;23.358;2022-08-11T09:43:17;91215.88;;;27.05;nan
6395;BME280;3230;42.588;23.358;2022-08-11T09:46:02;91214.75;;;27.51;nan
6395;BME280;3230;42.588;23.358;2022-08-11T09:48:30;91215.16;;;27.56;nan
6395;BME280;3230;42.588;23.358;2022-08-11T09:51:00;91218.41;;;27.32;nan
6395;BME280;3230;42.588;23.358;2022-08-11T09:53:29;91212.66;;;27.29;nan
6395;BME280;3230;42.588;23.358;2022-08-11T09:55:55;91210.38;;;27.35;nan
6395;BME280;3230;42.588;23.358;2022-08-11T09:58:22;91219.88;;;27.74;nan
6395;BME280;3230;42.588;23.358;2022-08-11T10:00:49;91216.41;;;27.70;nan
6395;BME280;3230;42.588;23.358;2022-08-11T10:03:21;91204.97;;;27.35;nan
6395;BME280;3230;42.588;23.358;2022-08-11T10:06:08;91208.50;;;27.39;nan
6395;BME280;3230;42.588;23.358;2022-08-11T10:08:53;91198.69;;;27.13;nan
6395;BME280;3230;42.588;23.358;2022-08-11T10:11:22;91200.72;;;27.27;nan
6395;BME280;3230;42.588;23.358;2022-08-11T10:13:51;91202.88;;;27.59;nan
6395;BME280;3230;42.588;23.358;2022-08-11T10:16:39;91199.44;;;27.62;nan
6395;BME280;3230;42.588;23.358;2022-08-11T10:19:07;91201.09;;;27.85;nan
6395;BME280;3230;42.588;23.358;2022-08-11T10:21:41;91206.81;;;27.72;nan
6395;BME280;3230;42.588;23.358;2022-08-11T10:24:09;91207.53;;;27.69;nan
6395;BME280;3230;42.588;23.358;2022-08-11T10:26:55;91207.47;;;27.51;nan
6395;BME280;3230;42.588;23.358;2022-08-11T10:29:35;91203.75;;;27.77;nan
6395;BME280;3230;42.588;23.358;2022-08-11T10:32:25;91198.94;;;27.42;nan
6395;BME280;3230;42.588;23.358;2022-08-11T10:35:12;91202.75;;;27.41;nan
6395;BME280;3230;42.588;23.358;2022-08-11T10:37:41;91194.91;;;27.21;nan
6395;BME280;3230;42.588;23.358;2022-08-11T10:40:13;91191.19;;;26.50;nan
6395;BME280;3230;42.588;23.358;2022-08-11T10:42:40;91195.84;;;26.57;nan
6395;BME280;3230;42.588;23.358;2022-08-11T10:45:24;91187.91;;;26.72;nan
6395;BME280;3230;42.588;23.358;2022-08-11T10:48:08;91187.97;;;26.75;nan
6395;BME280;3230;42.588;23.358;2022-08-11T10:50:35;91185.84;;;26.92;nan
6395;BME280;3230;42.588;23.358;2022-08-11T10:53:19;91188.81;;;26.79;nan
6395;BME280;3230;42.588;23.358;2022-08-11T10:56:04;91179.22;;;26.44;nan
6395;BME280;3230;42.588;23.358;2022-08-11T10:58:50;91174.38;;;26.61;nan
6395;BME280;3230;42.588;23.358;2022-08-11T11:01:33;91182.06;;;26.59;nan
6395;BME280;3230;42.588;23.358;2022-08-11T11:04:01;91184.28;;;26.91;nan
6395;BME280;3230;42.588;23.358;2022-08-11T11:09:19;91175.75;;;27.30;nan
6395;BME280;3230;42.588;23.358;2022-08-11T11:11:53;91180.88;;;27.46;nan
6395;BME280;3230;42.588;23.358;2022-08-11T11:14:41;91168.06;;;27.28;nan
6395;BME280;3230;42.588;23.358;2022-08-11T11:20:13;91173.88;;;26.86;nan
6395;BME280;3230;42.588;23.358;2022-08-11T11:22:42;91182.28;;;27.29;nan
6395;BME280;3230;42.588;23.358;2022-08-11T11:28:32;91177.66;;;26.77;nan
6395;BME280;3230;42.588;23.358;2022-08-11T11:31:30;91179.75;;;26.61;nan
6395;BME280;3230;42.588;23.358;2022-08-11T11:34:00;91178.28;;;27.08;nan
6395;BME280;3230;42.588;23.358;2022-08-11T11:36:48;91173.69;;;27.09;nan
6395;BME280;3230;42.588;23.358;2022-08-11T11:39:26;91173.41;;;27.25;nan
6395;BME280;3230;42.588;23.358;2022-08-11T11:41:54;91174.31;;;27.43;nan
6395;BME280;3230;42.588;23.358;2022-08-11T11:44:21;91171.00;;;27.09;nan
6395;BME280;3230;42.588;23.358;2022-08-11T11:46:47;91176.13;;;26.80;nan
6395;BME280;3230;42.588;23.358;2022-08-11T11:49:16;91176.25;;;26.94;nan
6395;BME280;3230;42.588;23.358;2022-08-11T11:51:44;91180.81;;;26.90;nan
6395;BME280;3230;42.588;23.358;2022-08-11T11:54:13;91168.81;;;26.80;nan
6395;BME280;3230;42.588;23.358;2022-08-11T11:56:40;91159.06;;;27.06;nan
6395;BME280;3230;42.588;23.358;2022-08-11T11:59:06;91172.09;;;27.53;nan
6395;BME280;3230;42.588;23.358;2022-08-11T12:01:51;91166.59;;;27.38;nan
6395;BME280;3230;42.588;23.358;2022-08-11T12:04:19;91167.50;;;27.60;nan
6395;BME280;3230;42.588;23.358;2022-08-11T12:06:46;91172.97;;;27.75;nan
6395;BME280;3230;42.588;23.358;2022-08-11T12:09:12;91169.44;;;27.60;nan
6395;BME280;3230;42.588;23.358;2022-08-11T12:11:43;91161.81;;;27.73;nan
6395;BME280;3230;42.588;23.358;2022-08-11T12:14:27;91162.00;;;28.05;nan
6395;BME280;3230;42.588;23.358;2022-08-11T12:16:54;91153.03;;;27.83;nan
6395;BME280;3230;42.588;23.358;2022-08-11T12:19:23;91163.47;;;27.96;nan
6395;BME280;3230;42.588;23.358;2022-08-11T12:21:50;91147.88;;;27.53;nan
6395;BME280;3230;42.588;23.358;2022-08-11T12:24:35;91157.66;;;27.23;nan
6395;BME280;3230;42.588;23.358;2022-08-11T12:27:20;91149.97;;;26.77;nan
6395;BME280;3230;42.588;23.358;2022-08-11T12:29:49;91150.00;;;25.71;nan
6395;BME280;3230;42.588;23.358;2022-08-11T12:32:16;91151.31;;;25.84;nan
6395;BME280;3230;42.588;23.358;2022-08-11T12:34:42;91150.66;;;26.29;nan
6395;BME280;3230;42.588;23.358;2022-08-11T12:37:09;91153.25;;;26.59;nan
6395;BME280;3230;42.588;23.358;2022-08-11T12:39:41;91152.09;;;26.57;nan
6395;BME280;3230;42.588;23.358;2022-08-11T12:42:30;91153.06;;;26.79;nan
6395;BME280;3230;42.588;23.358;2022-08-11T12:45:15;91152.03;;;26.49;nan
6395;BME280;3230;42.588;23.358;2022-08-11T12:48:15;91152.91;;;26.64;nan
6395;BME280;3230;42.588;23.358;2022-08-11T12:51:03;91147.78;;;26.48;nan
6395;BME280;3230;42.588;23.358;2022-08-11T12:56:19;91153.09;;;26.83;nan
6395;BME280;3230;42.588;23.358;2022-08-11T12:59:04;91151.25;;;26.49;nan
6395;BME280;3230;42.588;23.358;2022-08-11T13:01:49;91157.34;;;26.46;nan
6395;BME280;3230;42.588;23.358;2022-08-11T13:04:33;91153.50;;;26.43;nan
6395;BME280;3230;42.588;23.358;2022-08-11T13:07:20;91151.72;;;26.21;nan
6395;BME280;3230;42.588;23.358;2022-08-11T13:09:47;91152.06;;;25.85;nan
6395;BME280;3230;42.588;23.358;2022-08-11T13:12:14;91153.41;;;25.41;nan
6395;BME280;3230;42.588;23.358;2022-08-11T13:14:59;91165.97;;;25.10;nan
6395;BME280;3230;42.588;23.358;2022-08-11T13:17:26;91161.66;;;25.02;nan
6395;BME280;3230;42.588;23.358;2022-08-11T13:19:56;91165.84;;;24.76;nan
6395;BME280;3230;42.588;23.358;2022-08-11T13:22:23;91163.94;;;24.34;nan
6395;BME280;3230;42.588;23.358;2022-08-11T13:24:52;91161.22;;;24.53;nan
6395;BME280;3230;42.588;23.358;2022-08-11T13:27:20;91163.84;;;24.96;nan
6395;BME280;3230;42.588;23.358;2022-08-11T13:29:48;91162.00;;;25.00;nan
6395;BME280;3230;42.588;23.358;2022-08-11T13:32:14;91164.78;;;24.61;nan
6395;BME280;3230;42.588;23.358;2022-08-11T13:34:41;91177.47;;;24.64;nan
6395;BME280;3230;42.588;23.358;2022-08-11T13:37:12;91167.34;;;24.77;nan
6395;BME280;3230;42.588;23.358;2022-08-11T13:39:41;91164.00;;;25.07;nan
6395;BME280;3230;42.588;23.358;2022-08-11T13:42:13;91165.78;;;25.22;nan
6395;BME280;3230;42.588;23.358;2022-08-11T13:44:40;91166.53;;;24.96;nan
6395;BME280;3230;42.588;23.358;2022-08-11T13:47:07;91161.19;;;25.23;nan
6395;BME280;3230;42.588;23.358;2022-08-11T13:49:36;91170.53;;;25.60;nan
6395;BME280;3230;42.588;23.358;2022-08-11T13:52:02;91163.31;;;25.64;nan
6395;BME280;3230;42.588;23.358;2022-08-11T13:54:34;91164.81;;;25.92;nan
6395;BME280;3230;42.588;23.358;2022-08-11T13:57:05;91160.44;;;25.80;nan
6395;BME280;3230;42.588;23.358;2022-08-11T13:59:31;91164.41;;;25.90;nan
6395;BME280;3230;42.588;23.358;2022-08-11T14:02:03;91154.38;;;25.86;nan
6395;BME280;3230;42.588;23.358;2022-08-11T14:04:31;91154.47;;;25.63;nan
6395;BME280;3230;42.588;23.358;2022-08-11T14:07:04;91147.22;;;25.64;nan
6395;BME280;3230;42.588;23.358;2022-08-11T14:09:34;91153.84;;;25.74;nan
6395;BME280;3230;42.588;23.358;2022-08-11T14:12:06;91150.47;;;25.80;nan
6395;BME280;3230;42.588;23.358;2022-08-11T14:14:58;91147.31;;;25.71;nan
6395;BME280;3230;42.588;23.358;2022-08-11T14:17:25;91146.59;;;25.47;nan
6395;BME280;3230;42.588;23.358;2022-08-11T14:19:53;91144.00;;;25.28;nan
6395;BME280;3230;42.588;23.358;2022-08-11T14:22:20;91147.44;;;25.01;nan
6395;BME280;3230;42.588;23.358;2022-08-11T14:24:46;91144.94;;;25.12;nan
6395;BME280;3230;42.588;23.358;2022-08-11T14:27:16;91142.31;;;25.43;nan
6395;BME280;3230;42.588;23.358;2022-08-11T14:29:43;91138.22;;;25.52;nan
6395;BME280;3230;42.588;23.358;2022-08-11T14:32:11;91136.19;;;25.42;nan
6395;BME280;3230;42.588;23.358;2022-08-11T14:34:42;91139.41;;;25.55;nan
6395;BME280;3230;42.588;23.358;2022-08-11T14:37:11;91144.19;;;25.69;nan
6395;BME280;3230;42.588;23.358;2022-08-11T14:39:41;91135.97;;;25.54;nan
6395;BME280;3230;42.588;23.358;2022-08-11T14:42:07;91144.44;;;25.30;nan
6395;BME280;3230;42.588;23.358;2022-08-11T14:44:57;91131.41;;;25.32;nan
6395;BME280;3230;42.588;23.358;2022-08-11T14:47:46;91129.47;;;25.29;nan
6395;BME280;3230;42.588;23.358;2022-08-11T14:50:15;91131.19;;;25.14;nan
6395;BME280;3230;42.588;23.358;2022-08-11T14:52:48;91132.47;;;24.97;nan
6395;BME280;3230;42.588;23.358;2022-08-11T14:55:14;91131.09;;;25.06;nan
6395;BME280;3230;42.588;23.358;2022-08-11T14:58:00;91129.25;;;25.14;nan
6395;BME280;3230;42.588;23.358;2022-08-11T15:00:26;91125.25;;;25.28;nan
6395;BME280;3230;42.588;23.358;2022-08-11T15:02:52;91128.34;;;25.30;nan
6395;BME280;3230;42.588;23.358;2022-08-11T15:05:48;91131.25;;;25.17;nan
6395;BME280;3230;42.588;23.358;2022-08-11T15:08:16;91131.78;;;25.30;nan
6395;BME280;3230;42.588;23.358;2022-08-11T15:10:42;91134.09;;;25.32;nan
6395;BME280;3230;42.588;23.358;2022-08-11T15:13:08;91131.31;;;25.25;nan
6395;BME280;3230;42.588;23.358;2022-08-11T15:15:35;91126.19;;;25.39;nan
6395;BME280;3230;42.588;23.358;2022-08-11T15:18:21;91127.44;;;25.22;nan
6395;BME280;3230;42.588;23.358;2022-08-11T15:20:48;91128.56;;;25.17;nan
6395;BME280;3230;42.588;23.358;2022-08-11T15:23:32;91126.75;;;25.25;nan
6395;BME280;3230;42.588;23.358;2022-08-11T15:26:27;91116.38;;;25.23;nan
6395;BME280;3230;42.588;23.358;2022-08-11T15:29:19;91131.25;;;25.44;nan
6395;BME280;3230;42.588;23.358;2022-08-11T15:32:07;91116.06;;;25.29;nan
6395;BME280;3230;42.588;23.358;2022-08-11T15:34:48;91127.00;;;25.16;nan
6395;BME280;3230;42.588;23.358;2022-08-11T15:37:33;91111.94;;;25.08;nan
6395;BME280;3230;42.588;23.358;2022-08-11T15:40:05;91113.78;;;25.04;nan
6395;BME280;3230;42.588;23.358;2022-08-11T15:46:53;91114.00;;;24.91;nan
6395;BME280;3230;42.588;23.358;2022-08-11T15:49:32;91113.81;;;24.81;nan
6395;BME280;3230;42.588;23.358;2022-08-11T15:52:06;91113.28;;;24.95;nan
6395;BME280;3230;42.588;23.358;2022-08-11T15:54:34;91121.88;;;24.81;nan
6395;BME280;3230;42.588;23.358;2022-08-11T15:57:03;91115.63;;;24.73;nan
6395;BME280;3230;42.588;23.358;2022-08-11T15:59:36;91116.88;;;24.79;nan
6395;BME280;3230;42.588;23.358;2022-08-11T16:02:21;91121.81;;;24.77;nan
6395;BME280;3230;42.588;23.358;2022-08-11T16:05:02;91120.84;;;24.42;nan
6395;BME280;3230;42.588;23.358;2022-08-11T16:07:32;91129.25;;;24.41;nan
6395;BME280;3230;42.588;23.358;2022-08-11T16:10:12;91121.63;;;24.43;nan
6395;BME280;3230;42.588;23.358;2022-08-11T16:12:50;91132.66;;;24.18;nan
6395;BME280;3230;42.588;23.358;2022-08-11T16:15:33;91125.69;;;24.14;nan
6395;BME280;3230;42.588;23.358;2022-08-11T16:18:20;91123.25;;;23.85;nan
6395;BME280;3230;42.588;23.358;2022-08-11T16:20:49;91119.09;;;23.88;nan
6395;BME280;3230;42.588;23.358;2022-08-11T16:23:16;91119.31;;;23.59;nan
6395;BME280;3230;42.588;23.358;2022-08-11T16:25:44;91117.09;;;23.65;nan
6395;BME280;3230;42.588;23.358;2022-08-11T16:28:12;91126.50;;;23.75;nan
6395;BME280;3230;42.588;23.358;2022-08-11T16:30:40;91126.97;;;23.61;nan
6395;BME280;3230;42.588;23.358;2022-08-11T16:33:08;91130.16;;;23.67;nan
6395;BME280;3230;42.588;23.358;2022-08-11T16:35:36;91125.06;;;23.42;nan
6395;BME280;3230;42.588;23.358;2022-08-11T16:38:37;91131.41;;;23.53;nan
6395;BME280;3230;42.588;23.358;2022-08-11T16:41:10;91142.84;;;23.34;nan
6395;BME280;3230;42.588;23.358;2022-08-11T16:43:46;91135.13;;;23.13;nan
6395;BME280;3230;42.588;23.358;2022-08-11T16:46:32;91131.56;;;23.09;nan
6395;BME280;3230;42.588;23.358;2022-08-11T16:49:47;91142.69;;;23.27;nan
6395;BME280;3230;42.588;23.358;2022-08-11T16:52:14;91140.03;;;23.11;nan
6395;BME280;3230;42.588;23.358;2022-08-11T16:54:41;91141.94;;;23.10;nan
6395;BME280;3230;42.588;23.358;2022-08-11T16:57:14;91150.75;;;22.95;nan
6395;BME280;3230;42.588;23.358;2022-08-11T17:00:01;91145.06;;;22.80;nan
6395;BME280;3230;42.588;23.358;2022-08-11T17:02:32;91158.94;;;22.86;nan
6395;BME280;3230;42.588;23.358;2022-08-11T17:05:20;91157.41;;;22.85;nan
6395;BME280;3230;42.588;23.358;2022-08-11T17:08:06;91169.19;;;22.84;nan
6395;BME280;3230;42.588;23.358;2022-08-11T17:10:59;91166.19;;;22.70;nan
6395;BME280;3230;42.588;23.358;2022-08-11T17:14:06;91177.47;;;22.95;nan
6395;BME280;3230;42.588;23.358;2022-08-11T17:16:36;91188.94;;;22.79;nan
6395;BME280;3230;42.588;23.358;2022-08-11T17:19:09;91189.59;;;22.60;nan
6395;BME280;3230;42.588;23.358;2022-08-11T17:21:36;91195.47;;;22.22;nan
6395;BME280;3230;42.588;23.358;2022-08-11T17:24:23;91198.28;;;21.84;nan
6395;BME280;3230;42.588;23.358;2022-08-11T17:26:52;91191.56;;;21.50;nan
6395;BME280;3230;42.588;23.358;2022-08-11T17:29:35;91189.50;;;21.18;nan
6395;BME280;3230;42.588;23.358;2022-08-11T17:32:05;91200.38;;;20.76;nan
6395;BME280;3230;42.588;23.358;2022-08-11T17:34:51;91195.25;;;20.58;nan
6395;BME280;3230;42.588;23.358;2022-08-11T17:37:37;91201.94;;;20.31;nan